Time;durP1;ratioP1;P1;durP2;ratioP2;P2;SDS_P1;SDS_P2;PMS_P1;PMS_P2;Temp;Humidity;BMP_temperature;BMP_pressure;BME280_temperature;BME280_humidity;BME280_pressure;Samples;Min_cycle;Max_cycle;Signal;HPM_P1;HPM_P2
2022/09/26 07:56:42;;;;;;;1.85;0.98;;;;;;;;;;6217223;23;20344;-80
2022/09/26 07:59:07;;;;;;;1.85;1.20;;;;;;;;;;6232550;23;20008;-80
2022/09/26 08:37:34;;;;;;;1.70;1.00;;;;;;;;;;6272450;22;20015;-77
2022/09/26 08:40:00;;;;;;;0.73;0.73;;;;;;;;;;6277842;22;20010;-79
2022/09/26 08:43:01;;;;;;;1.50;1.00;;;;;;;;;;6277182;22;20008;-80
2022/09/26 08:48:53;;;;;;;0.82;0.82;;;;;;;;;;6231113;22;20500;-79
2022/09/26 08:51:35;;;;;;;2.67;1.20;;;;;;;;;;6246264;23;20018;-83
2022/09/26 08:54:31;;;;;;;1.50;1.00;;;;;;;;;;6246419;22;20004;-82
2022/09/26 08:57:06;;;;;;;0.80;0.80;;;;;;;;;;6246470;22;20031;-82
2022/09/26 08:59:40;;;;;;;1.55;1.00;;;;;;;;;;6246423;22;19992;-85
2022/09/26 09:02:24;;;;;;;1.27;1.10;;;;;;;;;;6246530;22;20004;-82
2022/09/26 09:05:02;;;;;;;1.02;0.93;;;;;;;;;;6246231;22;20011;-81
2022/09/26 09:07:28;;;;;;;1.25;1.10;;;;;;;;;;6244900;23;20368;-85
2022/09/26 09:10:00;;;;;;;1.52;0.85;;;;;;;;;;6246345;22;20005;-81
2022/09/26 09:13:02;;;;;;;1.15;1.05;;;;;;;;;;6247256;22;20008;-79
2022/09/26 09:16:21;;;;;;;0.98;0.98;;;;;;;;;;6243910;23;20015;-81
2022/09/26 09:19:16;;;;;;;0.90;0.90;;;;;;;;;;6126541;23;20480;-83
2022/09/26 09:22:14;;;;;;;0.82;0.82;;;;;;;;;;6248349;23;20012;-81
2022/09/26 09:25:00;;;;;;;1.05;0.95;;;;;;;;;;6248461;22;20027;-84
2022/09/26 09:27:46;;;;;;;0.77;0.77;;;;;;;;;;6248518;22;20072;-85
2022/09/26 09:30:17;;;;;;;1.50;0.90;;;;;;;;;;6248358;23;20000;-85
2022/09/26 09:32:47;;;;;;;0.82;0.82;;;;;;;;;;6248395;22;20008;-84
2022/09/26 09:35:15;;;;;;;2.85;1.00;;;;;;;;;;6249083;22;20081;-83
2022/09/26 09:37:50;;;;;;;1.17;1.08;;;;;;;;;;6248420;22;20316;-83
2022/09/26 09:40:41;;;;;;;0.98;0.98;;;;;;;;;;6248223;23;20016;-84
2022/09/26 09:43:15;;;;;;;0.80;0.80;;;;;;;;;;6221298;22;20419;-83
2022/09/26 09:45:49;;;;;;;0.98;0.98;;;;;;;;;;6248225;23;20020;-80
2022/09/26 09:48:15;;;;;;;0.80;0.80;;;;;;;;;;6248224;23;20445;-79
2022/09/26 09:51:17;;;;;;;0.70;0.70;;;;;;;;;;6247936;23;20075;-79
2022/09/26 09:53:42;;;;;;;0.90;0.90;;;;;;;;;;6221013;23;20008;-80
2022/09/26 09:56:50;;;;;;;0.80;0.80;;;;;;;;;;6248356;23;20058;-81
2022/09/26 09:59:35;;;;;;;1.30;0.98;;;;;;;;;;6222950;23;20423;-80
2022/09/26 10:02:33;;;;;;;0.80;0.80;;;;;;;;;;6247886;23;20008;-81
2022/09/26 10:05:17;;;;;;;2.95;0.88;;;;;;;;;;6247795;22;20011;-82
2022/09/26 10:07:43;;;;;;;1.00;0.73;;;;;;;;;;6247953;23;20419;-80
2022/09/26 10:10:18;;;;;;;1.00;0.80;;;;;;;;;;6248033;23;20416;-82
2022/09/26 10:12:44;;;;;;;2.08;0.90;;;;;;;;;;6221885;23;20011;-82
2022/09/26 10:15:18;;;;;;;0.90;0.80;;;;;;;;;;6247845;22;20004;-80
2022/09/26 10:18:23;;;;;;;1.25;1.15;;;;;;;;;;6248247;23;20486;-82
2022/09/26 10:20:57;;;;;;;1.50;1.40;;;;;;;;;;6098272;23;20006;-86
2022/09/26 10:23:26;;;;;;;0.80;0.70;;;;;;;;;;6072321;23;20070;-82
2022/09/26 10:25:58;;;;;;;0.80;0.80;;;;;;;;;;6096047;23;20050;-78
2022/09/26 10:28:41;;;;;;;0.70;0.70;;;;;;;;;;6096301;23;20089;-79
2022/09/26 10:31:09;;;;;;;2.25;1.48;;;;;;;;;;6096193;23;20438;-81
2022/09/26 10:33:42;;;;;;;2.30;2.10;;;;;;;;;;6096269;23;20007;-84
2022/09/26 10:36:15;;;;;;;1.15;0.85;;;;;;;;;;6096361;23;20461;-85
2022/09/26 10:41:54;;;;;;;0.90;0.88;;;;;;;;;;6096682;23;20101;-83
2022/09/26 10:44:23;;;;;;;1.05;0.80;;;;;;;;;;6096997;23;20006;-83
2022/09/26 10:46:55;;;;;;;1.17;1.15;;;;;;;;;;6096464;23;20089;-79
2022/09/26 10:49:25;;;;;;;0.68;0.60;;;;;;;;;;6096419;23;20037;-80
2022/09/26 10:52:01;;;;;;;2.72;0.93;;;;;;;;;;6190954;23;20008;-84
2022/09/26 10:54:40;;;;;;;1.73;0.82;;;;;;;;;;6247510;22;20434;-82
2022/09/26 10:57:08;;;;;;;0.93;0.93;;;;;;;;;;6247532;23;20014;-82
2022/09/26 10:59:38;;;;;;;0.70;0.70;;;;;;;;;;6248346;23;20004;-83
2022/09/26 11:02:05;;;;;;;2.80;1.45;;;;;;;;;;6247470;23;20008;-83
2022/09/26 11:07:24;;;;;;;1.10;1.00;;;;;;;;;;6247459;23;20011;-81
2022/09/26 11:09:52;;;;;;;1.05;0.80;;;;;;;;;;6247296;23;20054;-88
2022/09/26 11:12:29;;;;;;;1.13;1.13;;;;;;;;;;6221246;23;20331;-89
2022/09/26 11:15:08;;;;;;;1.10;1.10;;;;;;;;;;6250344;22;20292;-83
2022/09/26 11:17:46;;;;;;;1.00;1.00;;;;;;;;;;6247927;23;20004;-83
2022/09/26 11:20:44;;;;;;;1.35;0.98;;;;;;;;;;6249870;23;20423;-84
2022/09/26 11:23:16;;;;;;;1.25;1.02;;;;;;;;;;6195687;22;20061;-81
2022/09/26 11:26:05;;;;;;;1.00;1.00;;;;;;;;;;6248030;23;20087;-82
2022/09/26 11:28:54;;;;;;;0.68;0.68;;;;;;;;;;6247343;23;20035;-82
2022/09/26 11:31:28;;;;;;;0.93;0.93;;;;;;;;;;6247489;23;20001;-80
2022/09/26 11:33:58;;;;;;;0.80;0.80;;;;;;;;;;6247134;22;20419;-81
2022/09/26 11:36:45;;;;;;;0.70;0.70;;;;;;;;;;6247449;23;20008;-81
2022/09/26 11:39:42;;;;;;;0.75;0.75;;;;;;;;;;6246685;23;20070;-82
2022/09/26 11:42:25;;;;;;;0.82;0.82;;;;;;;;;;6219998;23;20008;-81
2022/09/26 11:45:00;;;;;;;1.20;1.10;;;;;;;;;;6246980;22;20435;-82
2022/09/26 16:15:30;;;;;;;8.83;4.10;;;;;;;;;;6248208;22;20323;-83
2022/09/26 16:17:57;;;;;;;7.28;4.35;;;;;;;;;;6278424;22;20233;-82
2022/09/26 16:20:30;;;;;;;4.22;3.83;;;;;;;;;;6277748;22;20006;-84
2022/09/26 16:22:56;;;;;;;3.25;2.95;;;;;;;;;;6254674;22;20008;-83
2022/09/26 16:25:46;;;;;;;2.65;2.45;;;;;;;;;;6247007;22;20004;-84
